createdAt,value
2018-01-30T00:02:01.481Z,102260
2018-01-30T00:07:06.051Z,102265
2018-01-30T00:12:10.478Z,102256
2018-01-30T00:17:14.366Z,102257
2018-01-30T00:22:18.228Z,102264
2018-01-30T00:27:22.662Z,102287
2018-01-30T00:32:25.743Z,102286
2018-01-30T00:37:30.016Z,102292
2018-01-30T00:42:34.664Z,102290
2018-01-30T00:47:37.743Z,102291
2018-01-30T00:52:41.244Z,102296
2018-01-30T00:57:45.677Z,102290
2018-01-30T01:02:50.439Z,102288
2018-01-30T01:07:54.709Z,102290
2018-01-30T01:13:00.258Z,102305
2018-01-30T01:18:04.728Z,102310
2018-01-30T01:23:07.881Z,102308
2018-01-30T01:28:12.107Z,102308
2018-01-30T01:33:16.581Z,102307
2018-01-30T01:38:20.588Z,102314
2018-01-30T01:43:24.529Z,102328
2018-01-30T01:48:27.695Z,102329
2018-01-30T01:53:31.178Z,102321
2018-01-30T01:58:34.311Z,102325
2018-01-30T02:03:37.400Z,102323
2018-01-30T02:08:41.388Z,102320
2018-01-30T02:13:46.237Z,102306
2018-01-30T02:18:50.254Z,102302
2018-01-30T02:23:54.483Z,102296
2018-01-30T02:28:58.358Z,102298
2018-01-30T02:34:01.436Z,102306
2018-01-30T02:39:04.588Z,102299
2018-01-30T02:44:07.724Z,102303
2018-01-30T02:49:12.168Z,102298
2018-01-30T02:54:16.116Z,102298
2018-01-30T02:59:20.182Z,102293
2018-01-30T03:04:23.293Z,102296
2018-01-30T03:09:28.671Z,102286
2018-01-30T03:14:32.535Z,102274
2018-01-30T03:19:36.554Z,102277
2018-01-30T03:24:42.787Z,102277
2018-01-30T03:29:48.324Z,102271
2018-01-30T03:34:52.719Z,102276
2018-01-30T03:39:55.873Z,102279
2018-01-30T03:44:59.821Z,102287
2018-01-30T03:50:03.901Z,102284
2018-01-30T03:55:08.588Z,102294
2018-01-30T04:00:12.252Z,102297
2018-01-30T04:05:16.553Z,102288
2018-01-30T04:10:20.949Z,102297
2018-01-30T04:15:24.812Z,102304
2018-01-30T04:20:29.330Z,102314
2018-01-30T04:25:32.872Z,102330
2018-01-30T04:30:37.895Z,102332
2018-01-30T04:35:42.352Z,102323
2018-01-30T04:40:47.132Z,102322
2018-01-30T04:45:51.728Z,102321
2018-01-30T04:50:55.604Z,102326
2018-01-30T04:55:59.587Z,102321
2018-01-30T05:01:02.761Z,102326
2018-01-30T05:06:05.879Z,102320
2018-01-30T05:11:09.726Z,102324
2018-01-30T05:16:14.320Z,102311
2018-01-30T05:21:17.448Z,102307
2018-01-30T05:26:21.682Z,102305
2018-01-30T05:31:25.702Z,102301
2018-01-30T05:36:29.668Z,102307
2018-01-30T05:41:34.541Z,102310
2018-01-30T05:46:37.681Z,102304
2018-01-30T05:51:40.799Z,102318
2018-01-30T05:56:45.693Z,102336
2018-01-30T06:01:50.018Z,102341
2018-01-30T06:06:54.520Z,102352
2018-01-30T06:11:59.625Z,102357
2018-01-30T06:17:03.138Z,102360
2018-01-30T06:22:07.126Z,102362
2018-01-30T06:27:11.023Z,102353
2018-01-30T06:32:14.154Z,102363
2018-01-30T06:37:17.627Z,102366
2018-01-30T06:42:20.758Z,102351
2018-01-30T06:47:27.788Z,102329
2018-01-30T06:52:32.045Z,102314
2018-01-30T06:57:35.912Z,102328
2018-01-30T07:02:39.057Z,102324
2018-01-30T07:07:43.307Z,102334
2018-01-30T07:12:46.451Z,102337
2018-01-30T07:17:49.559Z,102357
2018-01-30T07:22:53.043Z,102354
2018-01-30T07:27:56.157Z,102353
2018-01-30T07:32:59.612Z,102367
2018-01-30T07:38:03.475Z,102377
2018-01-30T07:43:07.319Z,102387
2018-01-30T07:48:10.391Z,102381
2018-01-30T07:53:14.621Z,102381
2018-01-30T07:58:18.180Z,102386
2018-01-30T08:03:21.265Z,102395
2018-01-30T08:08:27.084Z,102389
2018-01-30T08:13:30.934Z,102385
2018-01-30T08:18:34.055Z,102387
2018-01-30T08:23:38.421Z,102391
2018-01-30T08:28:41.455Z,102397
2018-01-30T08:33:44.541Z,102392
2018-01-30T08:38:47.641Z,102391
2018-01-30T08:43:50.730Z,102393
2018-01-30T08:48:54.256Z,102388
2018-01-30T08:53:57.401Z,102388
2018-01-30T08:59:00.576Z,102390
2018-01-30T09:04:03.729Z,102375
2018-01-30T09:09:06.913Z,102385
2018-01-30T09:14:10.071Z,102377
2018-01-30T09:19:13.162Z,102372
2018-01-30T09:24:17.604Z,102374
2018-01-30T09:29:20.675Z,102377
2018-01-30T09:34:23.761Z,102376
2018-01-30T09:39:26.848Z,102376
2018-01-30T09:44:30.748Z,102381
2018-01-30T09:49:34.686Z,102384
2018-01-30T09:54:38.543Z,102388
2018-01-30T09:59:42.390Z,102379
2018-01-30T10:04:47.185Z,102376
2018-01-30T10:09:51.775Z,102372
2018-01-30T10:14:55.251Z,102369
2018-01-30T10:19:59.105Z,102376
2018-01-30T10:25:02.581Z,102375
2018-01-30T10:30:05.663Z,102369
2018-01-30T10:35:09.508Z,102363
2018-01-30T10:40:12.588Z,102359
2018-01-30T10:45:16.799Z,102355
2018-01-30T10:50:19.887Z,102345
2018-01-30T10:55:23.808Z,102337
2018-01-30T11:00:33.968Z,102326
2018-01-30T11:05:37.056Z,102331
2018-01-30T11:10:42.595Z,102308
2018-01-30T11:15:45.682Z,102298
2018-01-30T11:20:48.777Z,102285
2018-01-30T11:25:53.008Z,102285
2018-01-30T11:30:57.455Z,102272
2018-01-30T11:36:00.556Z,102267
2018-01-30T11:41:04.675Z,102259
2018-01-30T11:46:09.134Z,102262
2018-01-30T11:51:15.729Z,102253
2018-01-30T11:56:20.190Z,102257
2018-01-30T12:01:24.640Z,102257
2018-01-30T12:06:29.119Z,102251
2018-01-30T12:11:33.556Z,102243
2018-01-30T12:16:37.040Z,102231
2018-01-30T12:21:40.122Z,102227
2018-01-30T12:26:44.389Z,102227
2018-01-30T12:31:47.486Z,102226
2018-01-30T12:36:52.572Z,102223
2018-01-30T12:41:55.664Z,102216
2018-01-30T12:47:00.152Z,102213
2018-01-30T12:52:03.708Z,102203
2018-01-30T12:57:08.180Z,102186
2018-01-30T13:02:13.488Z,102175
2018-01-30T13:07:17.976Z,102164
2018-01-30T13:12:22.418Z,102159
2018-01-30T13:17:26.019Z,102145
2018-01-30T13:22:30.082Z,102140
2018-01-30T13:27:34.640Z,102133
2018-01-30T13:32:40.132Z,102129
2018-01-30T13:37:43.233Z,102109
2018-01-30T13:42:46.332Z,102104
2018-01-30T13:47:50.571Z,102098
2018-01-30T13:52:53.665Z,102094
2018-01-30T13:57:58.960Z,102088
2018-01-30T14:03:03.401Z,102077
2018-01-30T14:08:07.856Z,102070
2018-01-30T14:13:12.299Z,102066
2018-01-30T14:18:15.788Z,102058
2018-01-30T14:23:19.655Z,102053
2018-01-30T14:28:23.901Z,102054
2018-01-30T14:33:29.377Z,102058
2018-01-30T14:38:33.825Z,102055
2018-01-30T14:43:37.689Z,102050
2018-01-30T14:48:41.548Z,102046
2018-01-30T14:53:45.995Z,102037
2018-01-30T14:58:50.580Z,102028
2018-01-30T15:03:53.718Z,102024
2018-01-30T15:08:56.804Z,102019
2018-01-30T15:14:01.304Z,102010
2018-01-30T15:19:07.066Z,102007
2018-01-30T15:24:11.428Z,101988
2018-01-30T15:29:15.284Z,101993
2018-01-30T15:34:20.679Z,101996
2018-01-30T15:39:24.907Z,101984
2018-01-30T15:44:28.768Z,101974
2018-01-30T15:49:33.224Z,101969
2018-01-30T15:54:37.762Z,101963
2018-01-30T15:59:42.609Z,101960
2018-01-30T16:04:47.181Z,101941
2018-01-30T16:09:50.246Z,101952
2018-01-30T16:14:54.687Z,101944
2018-01-30T16:19:58.189Z,101939
2018-01-30T16:25:02.045Z,101940
2018-01-30T16:30:05.142Z,101936
2018-01-30T16:35:08.233Z,101925
2018-01-30T16:40:12.101Z,101924
2018-01-30T16:45:15.981Z,101912
2018-01-30T16:50:19.077Z,101904
2018-01-30T16:55:22.173Z,101895
2018-01-30T17:00:26.020Z,101890
2018-01-30T17:05:30.476Z,101881
2018-01-30T17:10:34.928Z,101873
2018-01-30T17:15:39.371Z,101869
2018-01-30T17:20:42.461Z,101861
2018-01-30T17:25:46.324Z,101861
2018-01-30T17:30:49.452Z,101871
2018-01-30T17:35:53.457Z,101866
2018-01-30T17:40:57.891Z,101858
2018-01-30T17:46:02.340Z,101849
2018-01-30T17:51:05.450Z,101844
2018-01-30T17:56:09.316Z,101833
2018-01-30T18:01:13.587Z,101826
2018-01-30T18:06:17.444Z,101822
2018-01-30T18:11:21.670Z,101821
2018-01-30T18:16:25.889Z,101815
2018-01-30T18:21:30.159Z,101805
2018-01-30T18:26:35.526Z,101801
2018-01-30T18:31:39.375Z,101793
2018-01-30T18:36:44.003Z,101790
2018-01-30T18:41:48.403Z,101783
2018-01-30T18:46:51.892Z,101773
2018-01-30T18:51:55.747Z,101769
2018-01-30T18:56:59.600Z,101767
2018-01-30T19:02:03.663Z,101761
2018-01-30T19:07:06.739Z,101760
2018-01-30T19:12:11.183Z,101761
2018-01-30T19:17:15.028Z,101757
2018-01-30T19:22:18.160Z,101740
2018-01-30T19:27:22.592Z,101729
2018-01-30T19:32:27.057Z,101723
2018-01-30T19:37:31.268Z,101724
2018-01-30T19:42:34.350Z,101713
2018-01-30T19:47:38.943Z,101713
2018-01-30T19:52:43.370Z,101704
2018-01-30T19:57:47.951Z,101685
2018-01-30T20:02:52.395Z,101659
2018-01-30T20:07:56.244Z,101653
2018-01-30T20:13:00.304Z,101640
2018-01-30T20:18:04.782Z,101641
2018-01-30T20:23:09.362Z,101643
2018-01-30T20:28:13.810Z,101632
2018-01-30T20:33:18.235Z,101616
2018-01-30T20:38:22.671Z,101615
2018-01-30T20:43:26.523Z,101614
2018-01-30T20:48:29.606Z,101599
2018-01-30T20:53:33.458Z,101604
2018-01-30T20:58:37.890Z,101601
2018-01-30T21:03:42.479Z,101599
2018-01-30T21:08:46.941Z,101597
2018-01-30T21:13:51.371Z,101581
2018-01-30T21:18:55.608Z,101571
2018-01-30T21:24:00.033Z,101564
2018-01-30T21:29:03.889Z,101550
2018-01-30T21:34:07.354Z,101550
2018-01-30T21:39:11.942Z,101534
2018-01-30T21:44:16.367Z,101528
2018-01-30T21:49:20.945Z,101522
2018-01-30T21:54:24.431Z,101513
2018-01-30T21:59:28.874Z,101507
2018-01-30T22:04:31.959Z,101510
2018-01-30T22:09:36.393Z,101497
2018-01-30T22:14:40.819Z,101491
2018-01-30T22:19:45.248Z,101485
2018-01-30T22:24:49.687Z,101465
2018-01-30T22:29:52.758Z,101456
2018-01-30T22:34:56.258Z,101447
2018-01-30T22:40:00.112Z,101437
2018-01-30T22:45:03.961Z,101427
